createdAt,value
2023-02-19T00:00:05.673Z,100067.34
2023-02-19T00:00:17.964Z,100064.69
2023-02-19T00:00:29.872Z,100065.72
2023-02-19T00:00:41.775Z,100065.00
2023-02-19T00:00:53.723Z,100059.94
2023-02-19T00:01:14.282Z,100066.69
2023-02-19T00:01:34.962Z,100064.03
2023-02-19T00:01:47.519Z,100073.66
2023-02-19T00:01:59.433Z,100064.91
2023-02-19T00:02:11.408Z,100052.75
2023-02-19T00:02:23.437Z,100067.38
2023-02-19T00:02:35.675Z,100077.06
2023-02-19T00:02:48.245Z,100063.13
2023-02-19T00:03:00.173Z,100061.44
2023-02-19T00:03:12.086Z,100049.28
2023-02-19T00:03:24.274Z,100062.41
2023-02-19T00:03:37.619Z,100062.25
2023-02-19T00:03:52.417Z,100064.91
2023-02-19T00:04:18.312Z,100061.66
2023-02-19T00:04:30.247Z,100061.44
2023-02-19T00:04:42.228Z,100076.19
2023-02-19T00:04:57.030Z,100060.84
2023-02-19T00:05:10.068Z,100053.16
2023-02-19T00:05:22.138Z,100067.91
2023-02-19T00:05:35.264Z,100071.38
2023-02-19T00:05:47.200Z,100059.06
2023-02-19T00:06:02.698Z,100075.75
2023-02-19T00:06:14.599Z,100064.34
2023-02-19T00:06:28.375Z,100074.72
2023-02-19T00:06:40.800Z,100060.00
2023-02-19T00:06:52.722Z,100075.38
2023-02-19T00:07:06.268Z,100074.31
2023-02-19T00:07:18.325Z,100066.53
2023-02-19T00:07:30.258Z,100069.31
2023-02-19T00:07:43.377Z,100064.06
2023-02-19T00:07:55.315Z,100065.25
2023-02-19T00:08:08.377Z,100076.56
2023-02-19T00:08:20.297Z,100066.03
2023-02-19T00:08:33.819Z,100058.97
2023-02-19T00:08:46.127Z,100058.06
2023-02-19T00:08:58.541Z,100075.38
2023-02-19T00:09:15.402Z,100065.03
2023-02-19T00:09:27.650Z,100065.22
2023-02-19T00:09:39.650Z,100077.41
2023-02-19T00:09:51.532Z,100063.41
2023-02-19T00:10:03.699Z,100079.88
2023-02-19T00:10:15.892Z,100075.44
2023-02-19T00:10:27.795Z,100086.63
2023-02-19T00:10:39.761Z,100071.00
2023-02-19T00:10:51.751Z,100072.81
2023-02-19T00:11:07.261Z,100087.53
2023-02-19T00:11:21.945Z,100064.91
2023-02-19T00:11:35.402Z,100072.81
2023-02-19T00:11:47.951Z,100060.75
2023-02-19T00:11:59.928Z,100056.56
2023-02-19T00:12:11.917Z,100070.31
2023-02-19T00:12:23.825Z,100065.38
2023-02-19T00:12:35.719Z,100069.81
2023-02-19T00:12:47.643Z,100063.81
2023-02-19T00:12:59.583Z,100067.00
2023-02-19T00:13:12.461Z,100072.28
2023-02-19T00:13:27.062Z,100057.56
2023-02-19T00:13:41.160Z,100060.28
2023-02-19T00:13:55.386Z,100056.69
2023-02-19T00:14:08.287Z,100071.34
2023-02-19T00:14:21.362Z,100069.41
2023-02-19T00:14:33.255Z,100064.47
2023-02-19T00:14:45.145Z,100064.41
2023-02-19T00:14:58.384Z,100076.56
2023-02-19T00:15:10.277Z,100082.59
2023-02-19T00:15:22.204Z,100056.53
2023-02-19T00:15:35.894Z,100066.03
2023-02-19T00:15:47.898Z,100068.63
2023-02-19T00:16:08.999Z,100073.88
2023-02-19T00:16:24.895Z,100070.38
2023-02-19T00:16:39.339Z,100069.38
2023-02-19T00:16:51.323Z,100070.31
2023-02-19T00:17:03.363Z,100075.44
2023-02-19T00:17:15.290Z,100068.59
2023-02-19T00:17:27.234Z,100063.41
2023-02-19T00:17:39.167Z,100068.47
2023-02-19T00:17:51.059Z,100065.25
2023-02-19T00:18:06.085Z,100061.00
2023-02-19T00:18:18.969Z,100077.59
2023-02-19T00:18:30.854Z,100064.53
2023-02-19T00:18:43.695Z,100070.50
2023-02-19T00:18:57.844Z,100062.78
2023-02-19T00:19:14.865Z,100074.78
2023-02-19T00:19:28.122Z,100065.31
2023-02-19T00:19:40.052Z,100086.13
2023-02-19T00:19:53.101Z,100053.97
2023-02-19T00:20:05.208Z,100082.53
2023-02-19T00:20:17.199Z,100098.13
2023-02-19T00:20:29.140Z,100092.91
2023-02-19T00:20:41.051Z,100081.78
2023-02-19T00:20:56.046Z,100101.72
2023-02-19T00:21:08.715Z,100073.09
2023-02-19T00:21:21.244Z,100077.47
2023-02-19T00:21:33.835Z,100073.25
2023-02-19T00:21:46.018Z,100074.13
2023-02-19T00:21:57.950Z,100077.66
2023-02-19T00:22:09.912Z,100092.41
2023-02-19T00:22:21.852Z,100088.81
2023-02-19T00:22:33.774Z,100059.44
2023-02-19T00:22:45.718Z,100074.06
2023-02-19T00:22:57.678Z,100082.72
2023-02-19T00:23:09.627Z,100081.22
2023-02-19T00:23:21.655Z,100073.44
2023-02-19T00:23:34.208Z,100071.75
2023-02-19T00:23:54.252Z,100076.72
2023-02-19T00:24:08.459Z,100065.38
2023-02-19T00:24:21.509Z,100064.50
2023-02-19T00:24:33.393Z,100076.56
2023-02-19T00:24:45.417Z,100070.66
2023-02-19T00:24:57.980Z,100081.09
2023-02-19T00:25:10.836Z,100067.28
2023-02-19T00:25:22.767Z,100066.56
2023-02-19T00:25:37.954Z,100063.97
2023-02-19T00:25:49.840Z,100079.53
2023-02-19T00:26:17.535Z,100058.81
2023-02-19T00:26:30.447Z,100057.81
2023-02-19T00:26:43.974Z,100081.97
2023-02-19T00:26:55.925Z,100074.34
2023-02-19T00:27:07.828Z,100055.22
2023-02-19T00:27:19.831Z,100058.00
2023-02-19T00:27:32.695Z,100062.22
2023-02-19T00:27:44.682Z,100059.59
2023-02-19T00:27:56.800Z,100051.00
2023-02-19T00:28:08.740Z,100052.06
2023-02-19T00:28:21.557Z,100047.72
2023-02-19T00:28:33.816Z,100045.09
2023-02-19T00:28:47.325Z,100046.94
2023-02-19T00:29:01.066Z,100066.13
2023-02-19T00:29:15.651Z,100056.56
2023-02-19T00:29:27.579Z,100054.16
2023-02-19T00:29:39.562Z,100071.50
2023-02-19T00:29:52.405Z,100052.47
2023-02-19T00:30:04.603Z,100066.16
2023-02-19T00:30:16.658Z,100052.34
2023-02-19T00:30:28.642Z,100052.34
2023-02-19T00:30:40.656Z,100038.59
2023-02-19T00:30:52.630Z,100056.88
2023-02-19T00:31:09.820Z,100040.66
2023-02-19T00:31:26.014Z,100045.72
2023-02-19T00:31:38.116Z,100045.84
2023-02-19T00:31:50.181Z,100045.13
2023-02-19T00:32:05.809Z,100043.44
2023-02-19T00:32:17.834Z,100040.91
2023-02-19T00:32:29.746Z,100049.50
2023-02-19T00:32:41.627Z,100047.81
2023-02-19T00:32:55.642Z,100046.97
2023-02-19T00:33:08.589Z,100040.88
2023-02-19T00:33:20.498Z,100045.28
2023-02-19T00:33:32.582Z,100046.22
2023-02-19T00:33:45.881Z,100045.41
2023-02-19T00:34:00.135Z,100047.13
2023-02-19T00:34:13.101Z,100046.28
2023-02-19T00:34:25.103Z,100054.13
2023-02-19T00:34:37.067Z,100054.06
2023-02-19T00:34:48.993Z,100061.84
2023-02-19T00:35:01.436Z,100044.44
2023-02-19T00:35:13.461Z,100059.97
2023-02-19T00:35:25.345Z,100049.59
2023-02-19T00:35:37.518Z,100042.75
2023-02-19T00:35:49.419Z,100042.69
2023-02-19T00:36:03.048Z,100039.28
2023-02-19T00:36:15.589Z,100056.44
2023-02-19T00:36:28.608Z,100046.91
2023-02-19T00:36:41.754Z,100037.44
2023-02-19T00:36:53.670Z,100040.88
2023-02-19T00:37:05.629Z,100038.28
2023-02-19T00:37:17.734Z,100045.16
2023-02-19T00:37:29.809Z,100048.63
2023-02-19T00:37:41.714Z,100065.06
2023-02-19T00:37:53.610Z,100049.50
2023-02-19T00:38:05.746Z,100033.06
2023-02-19T00:38:17.658Z,100054.69
2023-02-19T00:38:29.903Z,100048.66
2023-02-19T00:38:43.353Z,100044.41
2023-02-19T00:38:55.423Z,100052.94
2023-02-19T00:39:10.848Z,100068.44
2023-02-19T00:39:22.855Z,100049.34
2023-02-19T00:39:34.812Z,100044.22
2023-02-19T00:39:46.841Z,100054.66
2023-02-19T00:39:58.748Z,100054.66
2023-02-19T00:40:11.002Z,100046.06
2023-02-19T00:40:25.907Z,100061.66
2023-02-19T00:40:38.608Z,100062.34
2023-02-19T00:40:50.511Z,100058.81
2023-02-19T00:41:18.934Z,100052.75
2023-02-19T00:41:33.234Z,100073.44
2023-02-19T00:41:46.389Z,100044.78
2023-02-19T00:42:00.787Z,100042.25
2023-02-19T00:42:12.683Z,100037.13
2023-02-19T00:42:25.767Z,100052.63
2023-02-19T00:42:37.813Z,100043.91
2023-02-19T00:42:49.752Z,100050.88
2023-02-19T00:43:01.678Z,100048.44
2023-02-19T00:43:16.581Z,100048.41
2023-02-19T00:43:28.512Z,100043.34
2023-02-19T00:43:40.470Z,100042.31
2023-02-19T00:43:58.002Z,100055.97
2023-02-19T00:44:11.572Z,100041.34
2023-02-19T00:44:23.511Z,100045.59
2023-02-19T00:44:35.478Z,100042.19
2023-02-19T00:44:47.371Z,100040.53
2023-02-19T00:44:59.314Z,100045.69
2023-02-19T00:45:11.215Z,100042.13
2023-02-19T00:45:23.483Z,100047.19
2023-02-19T00:45:35.695Z,100045.56
2023-02-19T00:45:47.683Z,100042.09
2023-02-19T00:45:59.641Z,100040.38
2023-02-19T00:46:11.740Z,100041.28
2023-02-19T00:46:25.805Z,100043.78
2023-02-19T00:46:40.672Z,100050.59
2023-02-19T00:46:52.682Z,100038.44
2023-02-19T00:47:04.733Z,100033.22
2023-02-19T00:47:16.635Z,100033.28
2023-02-19T00:47:28.531Z,100044.69
2023-02-19T00:47:40.444Z,100023.84
2023-02-19T00:47:53.146Z,100027.34
2023-02-19T00:48:05.160Z,100036.78
2023-02-19T00:48:19.066Z,100035.88
2023-02-19T00:48:30.955Z,100036.91
2023-02-19T00:48:43.429Z,100041.97
2023-02-19T00:48:56.293Z,100045.28
2023-02-19T00:49:11.794Z,100036.69
2023-02-19T00:49:23.845Z,100035.81
2023-02-19T00:49:35.816Z,100064.44
2023-02-19T00:49:47.722Z,100052.25
2023-02-19T00:49:59.643Z,100026.25
2023-02-19T00:50:11.631Z,100033.84
2023-02-19T00:50:23.573Z,100040.66
2023-02-19T00:50:35.569Z,100027.69
2023-02-19T00:50:47.751Z,100014.94
2023-02-19T00:50:59.711Z,100015.66
2023-02-19T00:51:12.070Z,100019.16
2023-02-19T00:51:28.039Z,100019.16
2023-02-19T00:51:39.984Z,100019.28
2023-02-19T00:51:52.693Z,100027.94
2023-02-19T00:52:07.272Z,100027.03
2023-02-19T00:52:19.188Z,100018.38
2023-02-19T00:52:31.168Z,100020.06
2023-02-19T00:52:43.098Z,100027.16
2023-02-19T00:52:55.177Z,100021.88
2023-02-19T00:53:07.125Z,100021.97
2023-02-19T00:53:19.330Z,100026.19
2023-02-19T00:53:31.283Z,100007.06
2023-02-19T00:53:43.527Z,100015.81
2023-02-19T00:53:55.573Z,100026.88
2023-02-19T00:54:07.633Z,100005.19
2023-02-19T00:54:19.686Z,100013.81
2023-02-19T00:54:32.829Z,100029.31
2023-02-19T00:54:44.781Z,99998.25
2023-02-19T00:54:56.728Z,100028.44
2023-02-19T00:55:08.703Z,100031.91
2023-02-19T00:55:20.649Z,100013.69
2023-02-19T00:55:32.564Z,100006.88
2023-02-19T00:55:44.529Z,100007.84
2023-02-19T00:55:56.476Z,100024.13
2023-02-19T00:56:08.949Z,100011.25
2023-02-19T00:56:21.405Z,100012.38
2023-02-19T00:56:34.082Z,100023.59
2023-02-19T00:56:47.013Z,100018.47
2023-02-19T00:56:58.988Z,100026.41
2023-02-19T00:57:10.991Z,100026.53
2023-02-19T00:57:22.935Z,100027.41
2023-02-19T00:57:34.885Z,100028.34
2023-02-19T00:57:46.834Z,100023.16
2023-02-19T00:57:58.734Z,100023.34
2023-02-19T00:58:10.685Z,100037.00
2023-02-19T00:58:22.600Z,100030.97
2023-02-19T00:58:35.203Z,100033.59
2023-02-19T00:58:47.801Z,100034.47
2023-02-19T00:58:59.816Z,100030.09
2023-02-19T00:59:12.246Z,100037.91
2023-02-19T00:59:24.181Z,100014.47
2023-02-19T00:59:36.828Z,100042.13
2023-02-19T00:59:48.799Z,100038.72
2023-02-19T01:00:00.787Z,100044.72
2023-02-19T01:00:15.371Z,100029.81
2023-02-19T01:00:27.322Z,100044.28
2023-02-19T01:00:39.305Z,100039.94
2023-02-19T01:00:51.193Z,100038.19
2023-02-19T01:01:03.251Z,100059.09
2023-02-19T01:01:16.621Z,100049.56
2023-02-19T01:01:28.572Z,100041.03
2023-02-19T01:01:41.103Z,100039.19
2023-02-19T01:01:53.042Z,100037.50
2023-02-19T01:02:05.046Z,100045.25
2023-02-19T01:02:17.119Z,100044.28
2023-02-19T01:02:29.060Z,100052.06
2023-02-19T01:02:41.048Z,100052.06
2023-02-19T01:02:53.048Z,100045.16
2023-02-19T01:03:04.984Z,100053.88
2023-02-19T01:03:16.947Z,100043.38
2023-02-19T01:03:29.115Z,100041.72
2023-02-19T01:03:41.209Z,100047.00
2023-02-19T01:03:53.233Z,100060.72
2023-02-19T01:04:06.662Z,100047.63
2023-02-19T01:04:18.924Z,100037.25
2023-02-19T01:04:30.954Z,100041.59
2023-02-19T01:04:42.954Z,100040.75
2023-02-19T01:04:54.994Z,100039.97
2023-02-19T01:05:07.173Z,100046.94
2023-02-19T01:05:19.205Z,100050.34
2023-02-19T01:05:31.156Z,100069.44
2023-02-19T01:05:43.094Z,100029.31
2023-02-19T01:05:55.161Z,100045.69
2023-02-19T01:06:09.274Z,100044.84
2023-02-19T01:06:21.384Z,100038.94
2023-02-19T01:06:34.566Z,100047.47
2023-02-19T01:06:48.563Z,100035.69
2023-02-19T01:07:00.560Z,100043.59
2023-02-19T01:07:12.477Z,100037.53
2023-02-19T01:07:24.444Z,100038.34
2023-02-19T01:07:37.230Z,100040.09
2023-02-19T01:07:49.200Z,100049.63
2023-02-19T01:08:01.091Z,100042.47
2023-02-19T01:08:13.208Z,100028.66
2023-02-19T01:08:28.237Z,100057.25
2023-02-19T01:08:40.550Z,100040.75
2023-02-19T01:08:52.520Z,100046.78
2023-02-19T01:09:05.518Z,100040.75
2023-02-19T01:09:17.546Z,100045.94
2023-02-19T01:09:29.480Z,100047.72
2023-02-19T01:09:41.463Z,100053.84
2023-02-19T01:09:53.424Z,100027.75
2023-02-19T01:10:05.872Z,100037.34
2023-02-19T01:10:17.920Z,100032.19
2023-02-19T01:10:29.863Z,100033.00
2023-02-19T01:10:41.970Z,100033.00
2023-02-19T01:10:53.934Z,100039.84
2023-02-19T01:11:07.602Z,100032.03
2023-02-19T01:11:20.407Z,100028.50
2023-02-19T01:11:32.496Z,100027.50
2023-02-19T01:11:44.425Z,100040.63
2023-02-19T01:11:56.341Z,100039.97
2023-02-19T01:12:08.298Z,100044.13
2023-02-19T01:12:20.237Z,100052.69
2023-02-19T01:12:35.343Z,100037.16
2023-02-19T01:12:47.249Z,100036.22
2023-02-19T01:12:59.190Z,100039.78
2023-02-19T01:13:14.085Z,100037.03
2023-02-19T01:13:26.576Z,100032.69
2023-02-19T01:13:39.671Z,100043.94
2023-02-19T01:13:51.566Z,100041.31
2023-02-19T01:14:06.161Z,100042.97
2023-02-19T01:14:18.128Z,100041.28
2023-02-19T01:14:30.160Z,100052.50
2023-02-19T01:14:42.129Z,100037.72
2023-02-19T01:14:55.028Z,100042.22
2023-02-19T01:15:07.299Z,100041.34
2023-02-19T01:15:19.258Z,100032.81
2023-02-19T01:15:34.363Z,100026.94
2023-02-19T01:15:46.383Z,100026.97
2023-02-19T01:16:08.428Z,100037.66
2023-02-19T01:16:24.698Z,100031.72
2023-02-19T01:16:36.867Z,100026.56
2023-02-19T01:16:48.788Z,100028.41
2023-02-19T01:17:00.754Z,100036.22
2023-02-19T01:17:12.738Z,100031.88
2023-02-19T01:17:24.867Z,100035.34
2023-02-19T01:17:36.889Z,100035.31
2023-02-19T01:17:49.065Z,100031.94
2023-02-19T01:18:01.062Z,100040.75
2023-02-19T01:18:16.149Z,100030.38
2023-02-19T01:18:28.085Z,100037.44
2023-02-19T01:18:40.496Z,100033.91
2023-02-19T01:18:52.816Z,100028.72
2023-02-19T01:19:06.945Z,100018.41
2023-02-19T01:19:18.840Z,100032.25
2023-02-19T01:19:30.750Z,100033.97
2023-02-19T01:19:42.692Z,100034.00
2023-02-19T01:19:54.628Z,100038.31
2023-02-19T01:20:06.765Z,100019.56
2023-02-19T01:20:18.721Z,100032.50
2023-02-19T01:20:31.273Z,100016.88
2023-02-19T01:20:44.652Z,100026.25
2023-02-19T01:20:56.592Z,100006.38
2023-02-19T01:21:12.894Z,100021.19
2023-02-19T01:21:26.879Z,100015.94
2023-02-19T01:21:40.234Z,100016.75
2023-02-19T01:21:52.178Z,100008.09
2023-02-19T01:22:04.125Z,100020.03
2023-02-19T01:22:16.071Z,100012.38
2023-02-19T01:22:28.040Z,100018.53
2023-02-19T01:22:39.931Z,100002.16
2023-02-19T01:22:52.117Z,100018.66
2023-02-19T01:23:04.166Z,100018.72
2023-02-19T01:23:16.067Z,100024.78
2023-02-19T01:23:28.051Z,100018.75
2023-02-19T01:23:40.414Z,100018.75
2023-02-19T01:23:52.873Z,100018.75
2023-02-19T01:24:07.304Z,100012.84
2023-02-19T01:24:19.466Z,100015.50
2023-02-19T01:24:31.377Z,100012.06
2023-02-19T01:24:43.295Z,100010.25
2023-02-19T01:24:55.241Z,100017.09
2023-02-19T01:25:07.291Z,100032.56
2023-02-19T01:25:19.515Z,100013.66
2023-02-19T01:25:31.471Z,100006.75
2023-02-19T01:25:43.486Z,100013.66
2023-02-19T01:25:55.393Z,100013.66
2023-02-19T01:26:11.622Z,100013.69
2023-02-19T01:26:26.086Z,100012.00
2023-02-19T01:26:38.091Z,100017.25
2023-02-19T01:26:50.055Z,100019.78
2023-02-19T01:27:02.013Z,100022.38
2023-02-19T01:27:13.916Z,99999.81
2023-02-19T01:27:25.822Z,100024.91
2023-02-19T01:27:37.717Z,100001.47
2023-02-19T01:27:49.705Z,100015.22
2023-02-19T01:28:01.641Z,100016.06
2023-02-19T01:28:13.578Z,100037.69
2023-02-19T01:28:25.476Z,100023.00
2023-02-19T01:28:37.453Z,100015.31
2023-02-19T01:28:49.584Z,100013.69
2023-02-19T01:29:02.220Z,100018.88
2023-02-19T01:29:14.156Z,100010.13
2023-02-19T01:29:26.120Z,100023.84
2023-02-19T01:29:38.170Z,100011.66
2023-02-19T01:29:50.081Z,100039.25
2023-02-19T01:30:02.020Z,100032.28
2023-02-19T01:30:14.142Z,100015.94
2023-02-19T01:30:27.858Z,100020.28
2023-02-19T01:30:40.035Z,100013.47
2023-02-19T01:30:51.976Z,100020.38
2023-02-19T01:31:06.019Z,100019.53
2023-02-19T01:31:20.984Z,100023.91
2023-02-19T01:31:33.418Z,100032.50
2023-02-19T01:31:45.575Z,100024.63
2023-02-19T01:31:57.585Z,100017.59
2023-02-19T01:32:12.306Z,100025.44
2023-02-19T01:32:24.300Z,100023.78
2023-02-19T01:32:36.319Z,100017.00
2023-02-19T01:32:48.396Z,100027.44
2023-02-19T01:33:00.417Z,100031.63
2023-02-19T01:33:12.344Z,100029.91
2023-02-19T01:33:24.247Z,100020.38
2023-02-19T01:33:36.193Z,100025.59
2023-02-19T01:34:02.289Z,100028.78
2023-02-19T01:34:14.232Z,100027.81
2023-02-19T01:34:26.998Z,100037.38
2023-02-19T01:34:39.054Z,100023.47
2023-02-19T01:34:50.986Z,100035.34
2023-02-19T01:35:03.139Z,100035.31
2023-02-19T01:35:15.137Z,100031.88
2023-02-19T01:35:27.013Z,100040.38
2023-02-19T01:35:39.518Z,100036.91
2023-02-19T01:35:51.423Z,100030.94
2023-02-19T01:36:05.829Z,100016.25
2023-02-19T01:36:17.956Z,100021.38
2023-02-19T01:36:33.341Z,100036.19
2023-02-19T01:36:45.258Z,100041.41
2023-02-19T01:36:57.278Z,100033.53
2023-02-19T01:37:12.870Z,100040.41
2023-02-19T01:37:24.836Z,100030.84
2023-02-19T01:37:37.358Z,100037.66
2023-02-19T01:37:49.396Z,100017.84
2023-02-19T01:38:01.352Z,100013.47
2023-02-19T01:38:13.269Z,100019.63
2023-02-19T01:38:25.176Z,100024.81
2023-02-19T01:38:37.184Z,100027.38
2023-02-19T01:38:49.775Z,100013.50
2023-02-19T01:39:05.012Z,99981.47
2023-02-19T01:39:16.925Z,100022.06
2023-02-19T01:39:28.900Z,100026.31
2023-02-19T01:39:40.856Z,100025.44
2023-02-19T01:39:52.755Z,100026.31
2023-02-19T01:40:05.116Z,100020.31
2023-02-19T01:40:17.131Z,100024.75
2023-02-19T01:40:29.252Z,100019.44
2023-02-19T01:40:41.277Z,100033.22
2023-02-19T01:40:57.424Z,100022.63
2023-02-19T01:41:13.595Z,100022.75
2023-02-19T01:41:25.858Z,100012.50
2023-02-19T01:41:40.347Z,100020.47
2023-02-19T01:41:52.238Z,100023.09
2023-02-19T01:42:06.115Z,100010.19
2023-02-19T01:42:18.041Z,100011.00
2023-02-19T01:42:29.983Z,100021.97
2023-02-19T01:42:45.141Z,100014.25
2023-02-19T01:42:57.034Z,100010.88
2023-02-19T01:43:16.188Z,100018.75
2023-02-19T01:43:28.750Z,100012.72
2023-02-19T01:44:00.625Z,99994.34
2023-02-19T01:44:12.630Z,100016.88
2023-02-19T01:44:24.519Z,100027.34
2023-02-19T01:44:36.347Z,100009.09
2023-02-19T01:44:48.199Z,100018.75
2023-02-19T01:45:28.538Z,100018.81
2023-02-19T01:45:44.245Z,100007.72
2023-02-19T01:45:56.247Z,100016.47
2023-02-19T01:46:08.221Z,100011.41
2023-02-19T01:46:20.165Z,100020.03
2023-02-19T01:46:33.997Z,100014.16
2023-02-19T01:46:48.446Z,100016.72
2023-02-19T01:47:01.824Z,100009.06
2023-02-19T01:47:16.046Z,100026.41
2023-02-19T01:47:27.992Z,100021.19
2023-02-19T01:47:40.245Z,100016.88
2023-02-19T01:47:58.701Z,100015.34
2023-02-19T01:48:23.594Z,100004.03
2023-02-19T01:48:39.202Z,100051.41
2023-02-19T01:48:51.257Z,100025.44
2023-02-19T01:49:14.999Z,100016.72
2023-02-19T01:49:34.138Z,100028.97
2023-02-19T01:49:56.794Z,100007.34
2023-02-19T01:50:08.890Z,100020.16
2023-02-19T01:50:22.646Z,100021.06
2023-02-19T01:50:40.852Z,100018.53
2023-02-19T01:51:04.661Z,100015.19
2023-02-19T01:51:20.789Z,100021.94
2023-02-19T01:51:35.125Z,100030.56
2023-02-19T01:52:04.261Z,100025.34
2023-02-19T01:52:22.021Z,100014.94
2023-02-19T01:52:36.835Z,100005.50
2023-02-19T01:52:48.768Z,100018.38
2023-02-19T01:53:05.413Z,100018.47
2023-02-19T01:53:21.106Z,100011.44
2023-02-19T01:53:37.858Z,100016.72
2023-02-19T01:53:55.847Z,100027.06
2023-02-19T01:54:10.026Z,99994.91
2023-02-19T01:54:25.030Z,100004.44
2023-02-19T01:54:40.348Z,100015.66
2023-02-19T01:54:53.914Z,100023.41
2023-02-19T01:55:10.657Z,100030.13
2023-02-19T01:55:23.549Z,100014.59
2023-02-19T01:55:35.718Z,100012.91
2023-02-19T01:55:52.211Z,100036.25
2023-02-19T01:56:06.792Z,100020.66
2023-02-19T01:56:20.090Z,100012.00
2023-02-19T01:56:34.839Z,100027.56
2023-02-19T01:56:49.524Z,100019.88
2023-02-19T01:57:06.798Z,100017.97
2023-02-19T01:57:22.500Z,100012.63
2023-02-19T01:57:40.610Z,100013.56
2023-02-19T01:57:55.843Z,100005.81
2023-02-19T01:58:09.269Z,100031.72
2023-02-19T01:58:21.981Z,100033.53
2023-02-19T01:58:36.441Z,100016.19
2023-02-19T01:58:48.485Z,100008.28
2023-02-19T01:59:01.442Z,100014.25
2023-02-19T01:59:14.070Z,100007.41
2023-02-19T01:59:26.268Z,100019.63
2023-02-19T01:59:38.493Z,100027.34
2023-02-19T01:59:57.612Z,100022.97
2023-02-19T02:00:13.545Z,100014.16
2023-02-19T02:00:25.956Z,100003.88
2023-02-19T02:00:39.037Z,100003.91
2023-02-19T02:00:51.788Z,100003.91
2023-02-19T02:01:07.538Z,100012.59
2023-02-19T02:01:19.764Z,100020.16
2023-02-19T02:01:32.154Z,99988.06
2023-02-19T02:01:44.955Z,99986.44
2023-02-19T02:01:56.983Z,100013.19
2023-02-19T02:02:09.355Z,100004.75
2023-02-19T02:02:28.371Z,100012.78
2023-02-19T02:02:42.769Z,100017.19
2023-02-19T02:02:57.829Z,100059.50
2023-02-19T02:03:10.497Z,100022.38
2023-02-19T02:03:22.816Z,100021.66
2023-02-19T02:03:38.058Z,100004.38
2023-02-19T02:03:50.744Z,100011.44
2023-02-19T02:04:04.052Z,100012.50
2023-02-19T02:04:18.685Z,100003.03
2023-02-19T02:04:32.973Z,99995.31
2023-02-19T02:04:44.951Z,99991.16
2023-02-19T02:05:00.142Z,99996.34
2023-02-19T02:05:23.038Z,99982.56
2023-02-19T02:05:54.819Z,99992.84
2023-02-19T02:06:32.202Z,99993.75
2023-02-19T02:06:51.805Z,99989.25
2023-02-19T02:07:26.342Z,99989.38
2023-02-19T02:07:56.767Z,99994.44
2023-02-19T02:08:28.073Z,99993.78
2023-02-19T02:08:58.543Z,99996.38
2023-02-19T02:09:29.294Z,99963.63
2023-02-19T02:09:59.424Z,99987.00
2023-02-19T02:10:20.522Z,99975.91
2023-02-19T02:10:32.455Z,99982.84
2023-02-19T02:10:44.737Z,99981.19
2023-02-19T02:10:57.624Z,99974.28
2023-02-19T02:11:09.994Z,99982.97
2023-02-19T02:11:22.077Z,99981.31
2023-02-19T02:11:34.316Z,99976.25
2023-02-19T02:11:49.644Z,99979.66
2023-02-19T02:12:01.550Z,100002.06
2023-02-19T02:12:14.011Z,99988.25
2023-02-19T02:12:25.905Z,99955.41
2023-02-19T02:12:37.822Z,99972.53
2023-02-19T02:12:52.832Z,99976.88
2023-02-19T02:13:04.843Z,99957.97
2023-02-19T02:13:17.119Z,99979.66
2023-02-19T02:13:29.430Z,99960.72
2023-02-19T02:13:41.608Z,100013.44
2023-02-19T02:13:54.154Z,99980.59
2023-02-19T02:14:06.276Z,99995.28
2023-02-19T02:14:21.957Z,99979.69
2023-02-19T02:14:37.305Z,99981.31
2023-02-19T02:14:49.283Z,99968.47
2023-02-19T02:15:01.352Z,99974.28
2023-02-19T02:15:16.276Z,99990.63
2023-02-19T02:16:01.941Z,99979.47
2023-02-19T02:16:51.400Z,99974.38
2023-02-19T02:17:21.381Z,99983.19
2023-02-19T02:17:58.251Z,99984.84
2023-02-19T02:18:27.938Z,99986.47
2023-02-19T02:18:47.273Z,99992.50
2023-02-19T02:19:25.297Z,99986.31
2023-02-19T02:20:13.090Z,99993.38
2023-02-19T02:20:39.921Z,99988.25
2023-02-19T02:21:11.493Z,99984.72
2023-02-19T02:21:44.427Z,99990.78
2023-02-19T02:22:06.818Z,99988.97
2023-02-19T02:22:30.935Z,99988.16
2023-02-19T02:22:56.506Z,99991.69
2023-02-19T02:23:27.154Z,99979.59
2023-02-19T02:24:03.106Z,99979.53
2023-02-19T02:24:36.612Z,99978.75
2023-02-19T02:25:16.398Z,100012.44
2023-02-19T02:25:31.033Z,99969.22
2023-02-19T02:26:28.964Z,99970.84
2023-02-19T02:26:59.651Z,99983.81
2023-02-19T02:27:39.343Z,99995.09
2023-02-19T02:28:12.218Z,99996.75
2023-02-19T02:28:46.313Z,99987.09
2023-02-19T02:29:22.774Z,99999.25
2023-02-19T02:30:05.190Z,100021.00
2023-02-19T02:30:23.825Z,99991.59
2023-02-19T02:30:46.133Z,99995.09
2023-02-19T02:31:16.968Z,99979.53
2023-02-19T02:31:32.872Z,100014.84
2023-02-19T02:31:54.274Z,99989.59
2023-02-19T02:32:17.884Z,99982.84
2023-02-19T02:32:53.461Z,99981.06
2023-02-19T02:33:11.329Z,99993.88
2023-02-19T02:33:43.834Z,99990.28
2023-02-19T02:34:04.699Z,99996.38
2023-02-19T02:34:23.241Z,99969.38
2023-02-19T02:34:45.758Z,99980.56
2023-02-19T02:35:07.904Z,99988.19
2023-02-19T02:35:27.811Z,99981.38
2023-02-19T02:35:46.190Z,99986.47
2023-02-19T02:36:00.452Z,99992.59
2023-02-19T02:36:24.933Z,99990.84
2023-02-19T02:36:44.022Z,99980.41
2023-02-19T02:36:59.470Z,99980.41
2023-02-19T02:37:12.265Z,99979.50
2023-02-19T02:37:27.793Z,99974.41
2023-02-19T02:37:43.565Z,99992.53
2023-02-19T02:38:00.565Z,99959.47
2023-02-19T02:38:15.060Z,99980.06
2023-02-19T02:38:31.691Z,99981.66
2023-02-19T02:38:46.600Z,99979.06
2023-02-19T02:39:01.395Z,100012.84
2023-02-19T02:39:17.407Z,99978.38
2023-02-19T02:39:32.182Z,99971.56
2023-02-19T02:39:46.747Z,99994.06
2023-02-19T02:40:00.386Z,99987.97
2023-02-19T02:40:12.748Z,99954.28
2023-02-19T02:40:25.471Z,99972.38
2023-02-19T02:40:43.013Z,99969.56
2023-02-19T02:40:56.615Z,99986.97
2023-02-19T02:41:09.387Z,99989.47
2023-02-19T02:41:21.844Z,99963.53
2023-02-19T02:41:34.135Z,99968.84
2023-02-19T02:42:13.538Z,99968.94
2023-02-19T02:42:29.075Z,99967.06
2023-02-19T02:42:41.043Z,99973.22
2023-02-19T02:42:52.972Z,99970.59
2023-02-19T02:43:04.852Z,99974.75
2023-02-19T02:43:16.802Z,99975.50
2023-02-19T02:43:28.961Z,99970.38
2023-02-19T02:43:40.962Z,99979.94
2023-02-19T02:43:52.890Z,99970.47
2023-02-19T02:44:04.987Z,99978.28
2023-02-19T02:44:16.914Z,99969.50
2023-02-19T02:44:36.262Z,99976.47
2023-02-19T02:45:06.991Z,99966.09
2023-02-19T02:45:37.602Z,99967.94
2023-02-19T02:45:49.810Z,99974.88
2023-02-19T02:46:01.758Z,99981.66
2023-02-19T02:46:19.302Z,99980.88
2023-02-19T02:46:37.319Z,99994.88
2023-02-19T02:46:49.209Z,99976.66
2023-02-19T02:47:01.152Z,99969.50